createdAt,value
2023-08-15T00:01:57.496Z,99.90
2023-08-15T00:04:24.281Z,99.90
2023-08-15T00:06:51.030Z,99.90
2023-08-15T00:09:17.807Z,99.90
2023-08-15T00:11:44.544Z,99.90
2023-08-15T00:14:12.351Z,99.90
2023-08-15T00:16:39.355Z,99.90
2023-08-15T00:19:06.185Z,99.90
2023-08-15T00:21:33.009Z,99.90
2023-08-15T00:23:59.891Z,99.90
2023-08-15T00:26:26.647Z,99.90
2023-08-15T00:28:53.436Z,99.90
2023-08-15T00:31:20.234Z,99.90
2023-08-15T00:33:47.069Z,99.90
2023-08-15T00:36:13.989Z,99.90
2023-08-15T00:38:40.779Z,99.90
2023-08-15T00:41:07.517Z,99.90
2023-08-15T00:43:34.389Z,99.90
2023-08-15T00:46:01.283Z,99.90
2023-08-15T00:48:31.022Z,99.90
2023-08-15T00:50:57.866Z,99.90
2023-08-15T00:53:24.602Z,99.90
2023-08-15T00:55:51.602Z,99.90
2023-08-15T00:58:18.366Z,99.90
2023-08-15T01:00:45.174Z,99.90
2023-08-15T01:03:12.066Z,99.90
2023-08-15T01:05:39.676Z,99.90
2023-08-15T01:08:07.720Z,99.90
2023-08-15T01:10:34.605Z,99.90
2023-08-15T01:13:10.494Z,99.90
2023-08-15T01:15:40.817Z,99.90
2023-08-15T01:18:12.714Z,99.90
2023-08-15T01:20:39.743Z,99.90
2023-08-15T01:23:07.866Z,99.90
2023-08-15T01:25:41.405Z,99.90
2023-08-15T01:28:14.973Z,99.90
2023-08-15T01:30:47.095Z,99.90
2023-08-15T01:33:17.637Z,99.90
2023-08-15T01:35:46.839Z,99.90
2023-08-15T01:38:32.648Z,99.90
2023-08-15T01:41:00.319Z,99.90
2023-08-15T01:43:27.095Z,99.90
2023-08-15T01:45:53.900Z,99.90
2023-08-15T01:48:20.682Z,99.90
2023-08-15T01:50:47.486Z,99.90
2023-08-15T01:53:14.238Z,99.90
2023-08-15T01:55:40.993Z,99.90
2023-08-15T01:58:07.766Z,99.90
2023-08-15T02:00:35.017Z,99.90
2023-08-15T02:03:01.877Z,99.90
2023-08-15T02:05:28.682Z,99.90
2023-08-15T02:07:55.557Z,99.90
2023-08-15T02:10:22.311Z,99.90
2023-08-15T02:12:49.093Z,99.90
2023-08-15T02:15:16.280Z,99.90
2023-08-15T02:17:43.106Z,99.90
2023-08-15T02:20:10.971Z,99.90
2023-08-15T02:22:37.855Z,99.90
2023-08-15T02:25:04.916Z,99.90
2023-08-15T02:27:31.718Z,99.90
2023-08-15T02:29:58.495Z,99.90
2023-08-15T02:32:25.457Z,99.90
2023-08-15T02:34:53.053Z,99.90
2023-08-15T02:37:20.389Z,99.90
2023-08-15T02:39:47.383Z,99.90
2023-08-15T02:42:14.143Z,99.90
2023-08-15T02:44:40.962Z,99.90
2023-08-15T02:47:07.728Z,99.90
2023-08-15T02:49:34.553Z,99.90
2023-08-15T02:52:01.454Z,99.90
2023-08-15T02:54:28.256Z,99.90
2023-08-15T02:56:55.038Z,99.90
2023-08-15T02:59:21.833Z,99.90
2023-08-15T03:01:49.042Z,99.90
2023-08-15T03:04:15.869Z,99.90
2023-08-15T03:06:43.849Z,99.90
2023-08-15T03:09:10.640Z,99.90
2023-08-15T03:11:37.681Z,99.90
2023-08-15T03:14:04.637Z,99.90
2023-08-15T03:16:31.429Z,99.90
2023-08-15T03:18:58.192Z,99.90
2023-08-15T03:21:24.934Z,99.90
2023-08-15T03:23:51.704Z,99.90
2023-08-15T03:26:18.429Z,99.90
2023-08-15T03:28:45.192Z,99.90
2023-08-15T03:31:12.080Z,99.90
2023-08-15T03:33:39.043Z,99.90
2023-08-15T03:36:06.026Z,99.90
2023-08-15T03:38:32.907Z,99.90
2023-08-15T03:41:03.804Z,99.90
2023-08-15T03:43:36.726Z,99.90
2023-08-15T03:46:04.387Z,99.90
2023-08-15T03:48:31.392Z,99.90
2023-08-15T03:50:59.047Z,99.90
2023-08-15T03:53:26.522Z,99.90
2023-08-15T03:55:53.924Z,99.90
2023-08-15T03:58:21.466Z,99.90
2023-08-15T04:00:48.369Z,99.90
2023-08-15T04:03:15.536Z,99.90
2023-08-15T04:05:48.601Z,99.90
2023-08-15T04:08:15.905Z,99.90
2023-08-15T04:10:45.510Z,99.90
2023-08-15T04:13:12.346Z,99.90
2023-08-15T04:15:39.286Z,99.90
2023-08-15T04:18:07.331Z,99.90
2023-08-15T04:20:38.620Z,99.90
2023-08-15T04:23:06.333Z,99.90
2023-08-15T04:25:37.134Z,99.90
2023-08-15T04:28:04.361Z,99.90
2023-08-15T04:30:31.369Z,99.90
2023-08-15T04:32:59.869Z,99.90
2023-08-15T04:35:30.043Z,99.90
2023-08-15T04:37:57.213Z,99.90
2023-08-15T04:40:41.261Z,99.90
2023-08-15T04:43:08.794Z,99.90
2023-08-15T04:45:44.819Z,99.90
2023-08-15T04:48:12.884Z,99.90
2023-08-15T04:50:39.802Z,99.90
2023-08-15T04:53:06.978Z,99.90
2023-08-15T04:55:34.223Z,99.90
2023-08-15T04:58:01.412Z,99.90
2023-08-15T05:00:30.411Z,99.90
2023-08-15T05:02:58.618Z,99.90
2023-08-15T05:05:25.675Z,99.90
2023-08-15T05:07:52.525Z,99.90
2023-08-15T05:10:19.377Z,99.90
2023-08-15T05:12:46.148Z,99.90
2023-08-15T05:15:13.025Z,99.90
2023-08-15T05:17:39.959Z,99.90
2023-08-15T05:20:07.345Z,99.90
2023-08-15T05:22:34.158Z,99.90
2023-08-15T05:25:00.956Z,99.90
2023-08-15T05:27:28.139Z,99.90
2023-08-15T05:29:55.006Z,99.90
2023-08-15T05:32:21.844Z,99.90
2023-08-15T05:34:48.640Z,99.90
2023-08-15T05:37:15.497Z,99.90
2023-08-15T05:39:42.296Z,99.90
2023-08-15T05:42:09.253Z,99.90
2023-08-15T05:44:36.086Z,99.90
2023-08-15T05:47:02.912Z,97.20
2023-08-15T05:49:29.728Z,97.30
2023-08-15T05:51:57.046Z,94.70
2023-08-15T05:54:23.955Z,93.90
2023-08-15T05:56:50.769Z,89.60
2023-08-15T05:59:17.556Z,84.10
2023-08-15T06:01:46.342Z,77.60
2023-08-15T06:04:13.235Z,71.90
2023-08-15T06:06:39.997Z,69.60
2023-08-15T06:09:06.793Z,66.70
2023-08-15T06:11:33.555Z,63.10
2023-08-15T06:14:00.323Z,45.80
2023-08-15T06:16:28.015Z,48.50
2023-08-15T06:18:54.844Z,45.50
2023-08-15T06:21:21.608Z,39.60
2023-08-15T06:23:48.342Z,36.30
2023-08-15T06:28:42.368Z,12.50
2023-08-15T06:31:09.179Z,9.40
2023-08-15T06:33:36.050Z,8.70
2023-08-15T06:36:02.810Z,8.10
2023-08-15T06:38:29.588Z,7.40
2023-08-15T06:40:56.631Z,5.10
2023-08-15T06:43:23.424Z,5.30
2023-08-15T06:45:50.271Z,1.00
2023-08-15T06:48:17.305Z,1.00
2023-08-15T06:50:45.734Z,1.00
2023-08-15T06:53:13.518Z,1.00
2023-08-15T06:55:40.317Z,1.00
2023-08-15T06:58:07.084Z,1.00
2023-08-15T07:00:33.913Z,1.00
2023-08-15T07:03:00.793Z,1.00
2023-08-15T07:05:27.670Z,1.00
2023-08-15T07:07:55.093Z,1.00
2023-08-15T07:10:21.962Z,1.00
2023-08-15T07:12:48.803Z,1.00
2023-08-15T07:15:15.681Z,1.00
2023-08-15T07:17:42.623Z,1.00
2023-08-15T07:20:11.052Z,1.00
2023-08-15T07:22:37.842Z,1.00
2023-08-15T07:25:04.927Z,1.00
2023-08-15T07:27:31.698Z,1.00
2023-08-15T07:29:58.620Z,1.00
2023-08-15T07:32:27.763Z,1.00
2023-08-15T07:34:54.562Z,1.00
2023-08-15T07:37:21.369Z,1.00
2023-08-15T07:39:57.408Z,1.00
2023-08-15T07:42:24.364Z,1.00
2023-08-15T07:44:51.224Z,1.00
2023-08-15T07:47:17.992Z,1.00
2023-08-15T07:49:44.979Z,1.00
2023-08-15T07:52:11.784Z,1.00
2023-08-15T07:54:38.680Z,1.00
2023-08-15T07:57:05.773Z,1.00
2023-08-15T07:59:32.556Z,1.00
2023-08-15T08:01:59.650Z,1.00
2023-08-15T08:04:26.497Z,1.00
2023-08-15T08:06:53.295Z,1.00
2023-08-15T08:09:20.063Z,1.00
2023-08-15T08:11:49.312Z,1.00
2023-08-15T08:14:16.219Z,1.00
2023-08-15T08:16:43.014Z,1.00
2023-08-15T08:19:09.779Z,1.00
2023-08-15T08:21:38.056Z,1.00
2023-08-15T08:24:05.219Z,1.00
2023-08-15T08:26:32.102Z,1.00
2023-08-15T08:28:58.876Z,1.00
2023-08-15T08:31:25.747Z,1.00
2023-08-15T08:33:52.757Z,1.00
2023-08-15T08:36:19.625Z,1.00
2023-08-15T08:38:46.418Z,1.00
2023-08-15T08:41:13.213Z,1.00
2023-08-15T08:43:40.867Z,1.00
2023-08-15T08:46:08.546Z,1.00
2023-08-15T08:48:36.539Z,1.00
2023-08-15T08:51:06.568Z,1.00
2023-08-15T08:53:33.356Z,1.00
2023-08-15T08:56:00.137Z,1.00
2023-08-15T08:58:27.072Z,1.00
2023-08-15T09:00:54.846Z,1.00
2023-08-15T09:03:22.085Z,1.00
2023-08-15T09:05:49.010Z,1.00
2023-08-15T09:08:15.807Z,1.00
2023-08-15T09:13:09.832Z,1.00
2023-08-15T09:15:36.650Z,1.00
2023-08-15T09:18:06.152Z,1.00
2023-08-15T09:20:33.532Z,1.00
2023-08-15T09:23:00.616Z,1.00
2023-08-15T09:25:28.427Z,1.00
2023-08-15T09:27:55.280Z,1.00
2023-08-15T09:30:22.671Z,1.00
2023-08-15T09:32:49.769Z,1.00
2023-08-15T09:35:18.485Z,1.00
2023-08-15T09:37:46.882Z,1.00
2023-08-15T09:40:18.577Z,1.00
2023-08-15T09:42:46.210Z,1.00
2023-08-15T09:45:16.688Z,1.00
2023-08-15T09:47:44.046Z,1.00
2023-08-15T09:50:14.350Z,1.00
2023-08-15T09:52:42.424Z,1.00
2023-08-15T09:55:12.897Z,1.00
2023-08-15T09:57:40.370Z,1.00
2023-08-15T10:00:14.595Z,1.00
2023-08-15T10:03:20.282Z,1.00
2023-08-15T10:05:49.395Z,1.00
2023-08-15T10:08:16.670Z,1.00
2023-08-15T10:10:43.514Z,1.00
2023-08-15T10:13:10.459Z,1.00
2023-08-15T10:15:37.298Z,1.00
2023-08-15T10:18:04.351Z,1.00
2023-08-15T10:20:38.080Z,1.00
2023-08-15T10:23:09.058Z,1.00
2023-08-15T10:25:44.914Z,1.00
2023-08-15T10:28:13.058Z,1.00
2023-08-15T10:30:50.056Z,1.00
2023-08-15T10:33:20.427Z,1.00
2023-08-15T10:35:56.519Z,1.00
2023-08-15T10:38:33.629Z,1.00
2023-08-15T10:41:16.599Z,1.00
2023-08-15T10:43:51.390Z,1.00
2023-08-15T10:46:21.975Z,1.00
2023-08-15T10:51:31.528Z,1.00
2023-08-15T10:54:00.009Z,1.00
2023-08-15T10:56:29.374Z,1.00
2023-08-15T10:58:56.627Z,1.00
2023-08-15T11:01:24.694Z,1.00
2023-08-15T11:03:53.264Z,1.00
2023-08-15T11:06:20.428Z,1.00
2023-08-15T11:08:49.518Z,1.00
2023-08-15T11:11:17.568Z,1.00
2023-08-15T11:13:48.133Z,1.00
2023-08-15T11:16:16.643Z,1.00
2023-08-15T11:18:43.777Z,1.00
2023-08-15T11:21:11.835Z,1.00
2023-08-15T11:23:39.178Z,1.00
2023-08-15T11:26:18.005Z,1.00
2023-08-15T11:28:45.051Z,1.00
2023-08-15T11:33:43.089Z,1.00
2023-08-15T11:36:11.278Z,1.00
2023-08-15T11:38:38.990Z,1.00
2023-08-15T11:41:05.941Z,1.00
2023-08-15T11:43:33.932Z,1.00
2023-08-15T11:46:04.373Z,1.00
2023-08-15T11:48:32.216Z,1.00
2023-08-15T11:50:59.396Z,1.00
2023-08-15T11:53:26.185Z,1.00
2023-08-15T11:55:53.089Z,1.00
2023-08-15T11:58:25.699Z,1.00
2023-08-15T12:00:56.888Z,1.00
2023-08-15T12:03:26.068Z,1.00
2023-08-15T12:05:56.737Z,1.00
2023-08-15T12:08:30.006Z,1.00
2023-08-15T12:10:58.510Z,1.00
2023-08-15T12:13:38.640Z,1.00
2023-08-15T12:16:06.249Z,1.00
2023-08-15T12:18:33.168Z,1.00
2023-08-15T12:21:00.406Z,1.00
2023-08-15T12:23:29.237Z,1.00
2023-08-15T12:25:56.679Z,1.00
2023-08-15T12:28:23.742Z,1.00
2023-08-15T12:30:50.712Z,1.00
2023-08-15T12:33:27.535Z,1.00
2023-08-15T12:36:02.559Z,1.00
2023-08-15T12:38:30.257Z,1.00
2023-08-15T12:40:57.273Z,1.00
2023-08-15T12:43:24.072Z,1.00
2023-08-15T12:45:50.917Z,1.00
2023-08-15T12:48:17.807Z,1.00
2023-08-15T12:50:44.636Z,1.00
2023-08-15T12:53:11.518Z,1.00
2023-08-15T12:55:38.335Z,1.00
2023-08-15T12:58:05.372Z,1.00
2023-08-15T13:00:32.338Z,1.00
2023-08-15T13:02:59.260Z,1.00
2023-08-15T13:05:26.152Z,1.00
2023-08-15T13:07:53.205Z,1.00
2023-08-15T13:10:19.980Z,1.00
2023-08-15T13:12:47.242Z,1.00
2023-08-15T13:15:14.099Z,1.00
2023-08-15T13:17:41.104Z,1.00
2023-08-15T13:20:10.134Z,1.00
2023-08-15T13:22:36.949Z,1.00
2023-08-15T13:25:03.898Z,1.00
2023-08-15T13:27:30.717Z,1.00
2023-08-15T13:29:58.050Z,1.00
2023-08-15T13:32:25.148Z,1.00
2023-08-15T13:34:52.126Z,1.00
2023-08-15T13:37:18.939Z,1.00
2023-08-15T13:39:45.758Z,1.00
2023-08-15T13:42:23.125Z,1.00
2023-08-15T13:45:00.109Z,1.00
2023-08-15T13:47:27.152Z,1.00
2023-08-15T13:49:53.986Z,1.00
2023-08-15T13:52:21.429Z,1.00
2023-08-15T13:54:48.388Z,1.00
2023-08-15T13:57:15.161Z,1.00
2023-08-15T13:59:42.256Z,1.00
2023-08-15T14:02:09.176Z,1.00
2023-08-15T14:04:36.159Z,1.00
2023-08-15T14:07:03.013Z,1.00
2023-08-15T14:09:32.590Z,1.00
2023-08-15T14:11:59.379Z,1.00
2023-08-15T14:14:26.183Z,1.00
2023-08-15T14:16:53.084Z,1.00
2023-08-15T14:19:19.970Z,1.00
2023-08-15T14:21:46.722Z,1.00
2023-08-15T14:24:13.530Z,1.00
2023-08-15T14:26:40.312Z,1.00
2023-08-15T14:29:07.101Z,1.00
2023-08-15T14:31:33.897Z,1.00
2023-08-15T14:34:00.879Z,1.00
2023-08-15T14:36:27.680Z,1.00
2023-08-15T14:38:54.640Z,1.00
2023-08-15T14:41:21.456Z,1.00
2023-08-15T14:43:48.291Z,1.00
2023-08-15T14:46:15.177Z,1.00
2023-08-15T14:48:41.967Z,1.00
2023-08-15T14:51:08.777Z,1.00
2023-08-15T14:53:35.552Z,1.00
2023-08-15T14:56:02.389Z,1.00
2023-08-15T14:58:29.151Z,1.00
2023-08-15T15:00:56.067Z,1.00
2023-08-15T15:03:22.893Z,1.00
2023-08-15T15:05:49.785Z,1.00
2023-08-15T15:08:16.550Z,1.00
2023-08-15T15:10:43.342Z,1.00
2023-08-15T15:13:10.122Z,1.00
2023-08-15T15:15:53.200Z,1.00
2023-08-15T15:18:20.925Z,1.00
2023-08-15T15:20:47.926Z,1.00
2023-08-15T15:23:15.303Z,1.00
2023-08-15T15:25:46.361Z,1.00
2023-08-15T15:28:13.382Z,1.00
2023-08-15T15:30:40.208Z,1.00
2023-08-15T15:33:08.213Z,1.00
2023-08-15T15:35:35.600Z,1.00
2023-08-15T15:38:02.476Z,1.00
2023-08-15T15:40:29.466Z,1.00
2023-08-15T15:42:56.324Z,1.00
2023-08-15T15:45:23.071Z,1.00
2023-08-15T15:47:50.003Z,1.00
2023-08-15T15:50:23.131Z,1.00
2023-08-15T15:52:50.064Z,1.00
2023-08-15T15:55:20.713Z,1.00
2023-08-15T15:57:47.651Z,1.00
2023-08-15T16:00:17.107Z,1.00
2023-08-15T16:02:44.249Z,1.00
2023-08-15T16:05:14.002Z,1.00
2023-08-15T16:07:40.918Z,1.00
2023-08-15T16:10:08.251Z,1.00
2023-08-15T16:12:35.113Z,1.00
2023-08-15T16:15:02.073Z,1.00
2023-08-15T16:17:29.338Z,1.00
2023-08-15T16:19:56.669Z,1.00
2023-08-15T16:22:23.779Z,1.00
2023-08-15T16:24:50.989Z,1.00
2023-08-15T16:27:17.854Z,1.00
2023-08-15T16:29:44.640Z,1.00
2023-08-15T16:32:12.853Z,1.00
2023-08-15T16:34:41.714Z,1.00
2023-08-15T16:37:08.553Z,1.00
2023-08-15T16:39:35.318Z,1.00
2023-08-15T16:42:02.112Z,1.00
2023-08-15T16:44:28.894Z,1.00
2023-08-15T16:46:55.774Z,1.00
2023-08-15T16:49:22.691Z,1.00
2023-08-15T16:51:49.451Z,1.00
2023-08-15T16:54:16.212Z,1.00
2023-08-15T16:56:42.987Z,1.00
2023-08-15T16:59:09.785Z,1.00
2023-08-15T17:01:36.610Z,1.00
2023-08-15T17:04:03.736Z,1.00
2023-08-15T17:06:30.563Z,1.00
2023-08-15T17:08:57.471Z,1.00
2023-08-15T17:11:24.281Z,1.00
2023-08-15T17:13:51.095Z,1.00
2023-08-15T17:16:17.881Z,1.00
2023-08-15T17:18:44.714Z,1.00
2023-08-15T17:21:11.531Z,1.00
2023-08-15T17:23:38.344Z,1.00
2023-08-15T17:26:05.085Z,1.00
2023-08-15T17:28:32.051Z,1.00
2023-08-15T17:31:00.752Z,1.00
2023-08-15T17:33:28.047Z,1.00
2023-08-15T17:35:54.889Z,1.00
2023-08-15T17:38:21.671Z,1.00
2023-08-15T17:40:48.433Z,1.00
2023-08-15T17:43:15.293Z,1.20
2023-08-15T17:45:42.140Z,14.60
2023-08-15T17:48:09.884Z,25.60
2023-08-15T17:50:36.894Z,26.60
2023-08-15T17:53:03.781Z,31.10
2023-08-15T17:55:30.699Z,29.80
2023-08-15T17:57:57.632Z,17.90
2023-08-15T18:00:24.853Z,11.20
2023-08-15T18:02:51.794Z,11.60
2023-08-15T18:05:18.755Z,7.90
2023-08-15T18:07:45.600Z,12.10
2023-08-15T18:10:12.413Z,13.10
2023-08-15T18:12:39.228Z,20.90
2023-08-15T18:15:06.553Z,29.40
2023-08-15T18:17:33.820Z,27.00
2023-08-15T18:20:01.674Z,28.20
2023-08-15T18:22:28.576Z,48.40
2023-08-15T18:24:55.442Z,70.20
2023-08-15T18:27:22.277Z,70.80
2023-08-15T18:29:49.240Z,75.00
2023-08-15T18:32:16.058Z,75.90
2023-08-15T18:34:42.868Z,78.70
2023-08-15T18:37:09.660Z,81.90
2023-08-15T18:39:36.666Z,79.50
2023-08-15T18:42:03.653Z,78.90
2023-08-15T18:44:31.442Z,81.30
2023-08-15T18:46:59.531Z,77.60
2023-08-15T18:49:26.987Z,77.90
2023-08-15T18:51:53.785Z,80.30
2023-08-15T18:54:20.602Z,78.50
2023-08-15T18:56:48.400Z,77.40
2023-08-15T18:59:15.233Z,78.30
2023-08-15T19:01:42.067Z,78.30
2023-08-15T19:04:08.990Z,82.60
2023-08-15T19:06:35.866Z,85.50
2023-08-15T19:09:02.666Z,82.90
2023-08-15T19:11:29.479Z,84.60
2023-08-15T19:13:56.279Z,85.50
2023-08-15T19:16:23.806Z,83.10
2023-08-15T19:18:50.672Z,82.20
2023-08-15T19:21:17.547Z,79.80
2023-08-15T19:23:45.532Z,78.20
2023-08-15T19:26:12.430Z,82.10
2023-08-15T19:28:39.226Z,88.60
2023-08-15T19:31:13.537Z,89.00
2023-08-15T19:33:40.352Z,90.80
2023-08-15T19:36:07.191Z,91.80
2023-08-15T19:38:34.376Z,94.60
2023-08-15T19:41:01.230Z,94.90
2023-08-15T19:43:28.039Z,96.10
2023-08-15T19:45:54.837Z,97.00
2023-08-15T19:48:21.992Z,97.30
2023-08-15T19:50:48.842Z,98.80
2023-08-15T19:53:15.668Z,99.90
2023-08-15T19:55:42.834Z,99.60
2023-08-15T19:58:10.335Z,99.60
2023-08-15T20:00:37.154Z,99.90
2023-08-15T20:03:04.075Z,99.50
2023-08-15T20:05:30.870Z,99.80
2023-08-15T20:07:58.453Z,99.90
2023-08-15T20:10:25.325Z,99.90
2023-08-15T20:12:55.134Z,99.90
2023-08-15T20:15:25.529Z,99.90
2023-08-15T20:17:52.324Z,99.90
2023-08-15T20:20:19.092Z,99.50
2023-08-15T20:22:45.856Z,99.20
2023-08-15T20:25:12.786Z,99.40
2023-08-15T20:27:39.682Z,99.10
2023-08-15T20:30:07.074Z,99.90
2023-08-15T20:32:33.958Z,99.20
2023-08-15T20:35:00.853Z,97.70
2023-08-15T20:37:29.014Z,99.50
2023-08-15T20:39:55.837Z,97.20
2023-08-15T20:42:22.866Z,97.50
2023-08-15T20:44:49.893Z,97.60
2023-08-15T20:47:16.747Z,97.50
2023-08-15T20:49:43.494Z,97.80
2023-08-15T20:52:11.152Z,96.90
2023-08-15T20:54:38.092Z,96.80
2023-08-15T20:57:05.258Z,96.80
2023-08-15T20:59:32.963Z,97.10
2023-08-15T21:04:28.277Z,96.20
2023-08-15T21:06:55.122Z,96.10
2023-08-15T21:09:22.269Z,96.30
2023-08-15T21:11:49.064Z,96.30
2023-08-15T21:14:16.010Z,97.60
2023-08-15T21:16:43.102Z,97.90
2023-08-15T21:19:09.917Z,98.80
2023-08-15T21:21:36.925Z,98.90
2023-08-15T21:24:04.724Z,99.00
2023-08-15T21:26:32.648Z,98.70
2023-08-15T21:28:59.443Z,98.90
2023-08-15T21:31:29.312Z,99.20
2023-08-15T21:33:56.250Z,99.60
2023-08-15T21:36:23.030Z,99.90
2023-08-15T21:38:49.788Z,99.90
2023-08-15T21:41:18.050Z,99.60
2023-08-15T21:43:44.865Z,99.90
2023-08-15T21:46:11.727Z,99.60
2023-08-15T21:48:38.560Z,99.90
2023-08-15T21:51:05.405Z,99.90
2023-08-15T21:53:32.194Z,99.90
2023-08-15T21:55:58.967Z,99.90
2023-08-15T21:58:25.705Z,99.90
2023-08-15T22:00:52.730Z,99.90
2023-08-15T22:03:19.624Z,99.90
2023-08-15T22:05:49.412Z,99.90
2023-08-15T22:08:16.359Z,99.90
2023-08-15T22:10:45.361Z,99.90
2023-08-15T22:13:12.157Z,99.90
2023-08-15T22:15:38.920Z,99.90
2023-08-15T22:20:39.824Z,99.90
2023-08-15T22:25:33.868Z,99.90
2023-08-15T22:28:00.690Z,99.90
2023-08-15T22:30:27.659Z,99.90
2023-08-15T22:32:54.598Z,99.90
2023-08-15T22:35:23.116Z,99.90
2023-08-15T22:37:51.621Z,99.90
2023-08-15T22:40:18.556Z,99.90
2023-08-15T22:42:45.356Z,99.90
2023-08-15T22:45:12.120Z,99.90
2023-08-15T22:47:38.942Z,99.90
2023-08-15T22:50:06.329Z,99.90
2023-08-15T22:52:33.099Z,99.90
2023-08-15T22:54:59.858Z,99.90
2023-08-15T22:57:26.712Z,99.90
2023-08-15T22:59:54.137Z,99.90
2023-08-15T23:02:20.891Z,99.90
2023-08-15T23:04:47.795Z,99.90
2023-08-15T23:07:14.672Z,99.90
2023-08-15T23:09:41.435Z,99.90
2023-08-15T23:12:08.713Z,99.90
2023-08-15T23:14:35.585Z,99.90
2023-08-15T23:17:02.382Z,99.90
2023-08-15T23:19:29.502Z,99.90
2023-08-15T23:21:56.252Z,99.90
2023-08-15T23:24:23.104Z,99.90
2023-08-15T23:26:49.840Z,99.90
2023-08-15T23:29:16.644Z,99.90
2023-08-15T23:31:43.452Z,99.90
2023-08-15T23:34:10.214Z,99.90
2023-08-15T23:36:37.037Z,99.90
2023-08-15T23:39:06.081Z,99.90
2023-08-15T23:41:32.851Z,99.90
2023-08-15T23:43:59.637Z,99.90
2023-08-15T23:46:26.424Z,99.90
2023-08-15T23:48:53.382Z,99.90
2023-08-15T23:51:20.181Z,99.90
2023-08-15T23:53:48.559Z,99.90
2023-08-15T23:56:18.529Z,99.90
2023-08-15T23:58:46.229Z,99.90
